Weather at Hoffman's Black Mountain Aerodrome

Public forecast

Using degrees Fahrenheit for public forecast. Weather courtesy of forecast.io.

Closest aviation weather report (METAR) to Hoffman's Black Mountain Aerodrome

Closest report is Cheboygan County Airport, 11.5 nm (21.3 km) NW. Retrieved 2021/08/01 01:35 UTC (9 minutes ago):

KSLH 010135Z AUTO 00000KT 7SM SCT027 SCT042 SCT060 18/16 A2988 RMK AO2

Closest aviation forecast (TAF) to Hoffman's Black Mountain Aerodrome

Closest forecast is Pellston Regional Airport of Emmet County Airport, 20.7 nm (38.3 km) W. Retrieved 2021-08-01 00:22 UTC (1 hour ago):

TAF KPLN 312320Z 0100/0124 32005KT P6SM VCSH SCT025 BKN050 FM011000 34007KT 6SM -SHRA BKN025 OVC050 FM011600 35010KT P6SM SCT050